Time;durP1;ratioP1;P1;durP2;ratioP2;P2;SDS_P1;SDS_P2;PMS_P1;PMS_P2;Temp;Humidity;BMP_temperature;BMP_pressure;BME280_temperature;BME280_humidity;BME280_pressure;Samples;Min_cycle;Max_cycle;Signal;HPM_P1;HPM_P2
2020/12/17 00:01:56;;;;;;;50.83;21.48;;;5.10;99.90;;;;;;4923431;29;20039;-71
2020/12/17 00:04:21;;;;;;;47.67;20.35;;;5.10;99.90;;;;;;4921532;29;20047;-71
2020/12/17 00:06:47;;;;;;;47.67;20.88;;;5.10;99.90;;;;;;4922047;29;20119;-71
2020/12/17 00:09:13;;;;;;;45.42;21.30;;;5.20;99.90;;;;;;4921887;29;20152;-71
2020/12/17 00:11:38;;;;;;;47.05;20.17;;;5.20;99.90;;;;;;4920791;29;20046;-71
2020/12/17 00:14:04;;;;;;;44.40;20.30;;;5.20;99.90;;;;;;4920560;29;20054;-71
2020/12/17 00:16:30;;;;;;;45.47;20.98;;;5.20;99.90;;;;;;4920952;29;20432;-71
2020/12/17 00:18:55;;;;;;;44.42;20.20;;;5.20;99.90;;;;;;4934560;28;20063;-71
2020/12/17 00:21:21;;;;;;;43.88;20.55;;;5.10;99.90;;;;;;4919439;29;20055;-71
2020/12/17 00:23:48;;;;;;;41.05;19.15;;;5.10;99.90;;;;;;4922540;29;20031;-71
2020/12/17 00:26:14;;;;;;;49.50;20.25;;;5.20;99.90;;;;;;4924132;29;20064;-71
2020/12/17 00:28:39;;;;;;;41.67;19.70;;;5.20;99.90;;;;;;4925140;29;20040;-71
2020/12/17 00:31:05;;;;;;;48.65;20.25;;;5.20;99.90;;;;;;4925491;29;20536;-71
2020/12/17 00:33:31;;;;;;;45.20;19.60;;;5.20;99.90;;;;;;4923525;29;20095;-71
2020/12/17 00:35:56;;;;;;;41.15;20.08;;;5.20;99.90;;;;;;4925625;29;20040;-71
2020/12/17 00:38:22;;;;;;;37.13;18.45;;;5.20;99.90;;;;;;4925758;29;20111;-71
2020/12/17 00:40:48;;;;;;;40.55;19.42;;;5.10;99.90;;;;;;4925682;29;20036;-71
2020/12/17 00:43:13;;;;;;;39.92;19.02;;;5.20;99.90;;;;;;4940216;28;20036;-71
2020/12/17 00:45:39;;;;;;;41.08;18.55;;;5.20;99.90;;;;;;4924942;29;20087;-71
2020/12/17 00:48:04;;;;;;;41.50;19.42;;;5.20;99.90;;;;;;4924778;29;20040;-71
2020/12/17 00:50:30;;;;;;;40.72;18.65;;;5.30;99.90;;;;;;4939106;28;20150;-72
2020/12/17 00:52:56;;;;;;;34.72;17.27;;;5.30;99.90;;;;;;4924842;29;20150;-71
2020/12/17 00:55:21;;;;;;;38.40;18.52;;;5.30;99.90;;;;;;4923805;29;20062;-71
2020/12/17 00:57:47;;;;;;;39.35;18.48;;;5.20;99.90;;;;;;4923188;29;20772;-71
2020/12/17 01:00:13;;;;;;;37.05;19.00;;;5.20;99.90;;;;;;4924367;29;20046;-71
2020/12/17 01:02:39;;;;;;;36.97;17.80;;;5.30;99.90;;;;;;4924244;29;20031;-71
2020/12/17 01:05:05;;;;;;;36.42;17.55;;;5.30;99.90;;;;;;4923850;29;20031;-71
2020/12/17 01:07:31;;;;;;;36.97;18.08;;;5.30;99.90;;;;;;4924444;29;20794;-71
2020/12/17 01:09:57;;;;;;;37.20;17.50;;;5.30;99.90;;;;;;4924319;29;20032;-71
2020/12/17 01:12:23;;;;;;;35.50;17.58;;;5.30;99.90;;;;;;4924547;29;20038;-71
2020/12/17 01:14:48;;;;;;;36.15;17.38;;;5.30;99.90;;;;;;4923896;29;20062;-71
2020/12/17 01:17:15;;;;;;;33.70;16.55;;;5.40;99.90;;;;;;4921985;29;20035;-71
2020/12/17 01:19:41;;;;;;;35.22;17.25;;;5.40;99.90;;;;;;4923835;29;20826;-71
2020/12/17 01:22:06;;;;;;;36.35;17.75;;;5.30;99.90;;;;;;4938532;29;20074;-71
2020/12/17 01:24:32;;;;;;;40.08;17.85;;;5.20;99.90;;;;;;4938197;29;20807;-71
2020/12/17 01:26:58;;;;;;;35.45;17.10;;;5.20;99.90;;;;;;4938179;29;20043;-73
2020/12/17 01:29:24;;;;;;;41.10;17.75;;;5.10;99.90;;;;;;4924051;29;20070;-71
2020/12/17 01:31:59;;;;;;;37.13;17.63;;;5.10;99.90;;;;;;4923377;29;20126;-71
2020/12/17 01:34:25;;;;;;;41.67;17.95;;;5.00;99.90;;;;;;4922885;29;20063;-71
2020/12/17 01:36:55;;;;;;;40.88;17.50;;;4.90;99.90;;;;;;4922897;29;20463;-71
2020/12/17 01:39:24;;;;;;;34.25;16.70;;;4.90;99.90;;;;;;4923133;29;20107;-71
2020/12/17 01:41:51;;;;;;;39.45;18.38;;;4.80;99.90;;;;;;4923444;29;20094;-71
2020/12/17 01:44:17;;;;;;;37.72;17.58;;;4.80;99.90;;;;;;4923191;29;20038;-71
2020/12/17 01:46:42;;;;;;;35.90;16.92;;;4.80;99.90;;;;;;4922279;29;20040;-71
2020/12/17 01:49:09;;;;;;;40.88;18.30;;;4.70;99.90;;;;;;4923437;29;20480;-71
2020/12/17 01:51:35;;;;;;;34.97;17.25;;;4.60;99.90;;;;;;4921707;29;20032;-71
2020/12/17 01:54:01;;;;;;;39.55;18.10;;;4.60;99.90;;;;;;4923034;29;20530;-71
2020/12/17 01:56:28;;;;;;;33.35;16.17;;;4.60;99.90;;;;;;4922801;29;20043;-71
2020/12/17 01:58:57;;;;;;;35.47;17.75;;;4.60;99.90;;;;;;4937470;28;20040;-71
2020/12/17 02:01:30;;;;;;;35.45;16.60;;;4.60;99.90;;;;;;4922526;29;20731;-71
2020/12/17 02:03:56;;;;;;;37.67;17.77;;;4.60;99.90;;;;;;4923319;29;20090;-70
2020/12/17 02:06:22;;;;;;;35.97;17.58;;;4.50;99.90;;;;;;4922445;29;20040;-71
2020/12/17 02:08:50;;;;;;;37.40;17.65;;;4.50;99.90;;;;;;4937565;28;20492;-71
2020/12/17 02:11:17;;;;;;;41.03;17.75;;;4.40;99.90;;;;;;4922916;29;20676;-71
2020/12/17 02:13:43;;;;;;;40.83;18.13;;;4.40;99.90;;;;;;4923239;29;20036;-71
2020/12/17 02:16:08;;;;;;;40.13;18.67;;;4.30;99.90;;;;;;4922063;29;20063;-71
2020/12/17 02:18:34;;;;;;;39.47;18.00;;;4.40;99.90;;;;;;4922786;29;20794;-71
2020/12/17 02:21:01;;;;;;;40.63;18.20;;;4.30;99.90;;;;;;4921363;29;20404;-71
2020/12/17 02:23:27;;;;;;;40.42;18.42;;;4.30;99.90;;;;;;4921407;29;20130;-71
2020/12/17 02:25:54;;;;;;;36.58;17.83;;;4.20;99.90;;;;;;4921562;29;20890;-71
2020/12/17 02:28:21;;;;;;;38.13;17.65;;;4.10;99.90;;;;;;4922265;29;20031;-71
2020/12/17 02:30:47;;;;;;;40.38;18.35;;;4.10;99.90;;;;;;4922469;29;20123;-71
2020/12/17 02:33:13;;;;;;;42.13;18.27;;;4.00;99.90;;;;;;4922303;29;20165;-71
2020/12/17 02:35:40;;;;;;;36.40;16.77;;;4.00;99.90;;;;;;4922641;29;20223;-71
2020/12/17 02:38:06;;;;;;;41.17;18.60;;;4.00;99.90;;;;;;4937023;29;20035;-71
2020/12/17 02:40:33;;;;;;;40.05;18.08;;;4.00;99.90;;;;;;4921028;28;20079;-71
2020/12/17 02:42:59;;;;;;;37.67;18.13;;;3.90;99.90;;;;;;4922198;29;20436;-71
2020/12/17 02:45:25;;;;;;;41.45;18.58;;;3.90;99.90;;;;;;4921228;29;20032;-71
2020/12/17 02:47:51;;;;;;;40.35;18.48;;;3.80;99.90;;;;;;4921118;29;20043;-71
2020/12/17 02:50:17;;;;;;;44.10;20.00;;;3.80;99.90;;;;;;4921823;29;20039;-71
2020/12/17 02:52:43;;;;;;;41.55;18.50;;;3.80;99.90;;;;;;4921909;29;20679;-71
2020/12/17 02:55:09;;;;;;;40.95;18.30;;;3.80;99.90;;;;;;4921238;29;20039;-71
2020/12/17 02:57:35;;;;;;;42.85;18.55;;;3.70;99.90;;;;;;4921386;29;20062;-71
2020/12/17 03:00:05;;;;;;;40.22;18.55;;;3.70;99.90;;;;;;4928387;29;20194;-71
2020/12/17 03:02:31;;;;;;;39.97;17.80;;;3.60;99.90;;;;;;4921508;29;20700;-71
2020/12/17 03:04:56;;;;;;;40.30;18.63;;;3.60;99.90;;;;;;4920660;29;20042;-71
2020/12/17 03:07:22;;;;;;;42.40;19.58;;;3.60;99.90;;;;;;4919907;29;20039;-71
2020/12/17 03:09:48;;;;;;;42.15;18.95;;;3.50;99.90;;;;;;4920472;29;20055;-71
2020/12/17 03:12:13;;;;;;;42.03;18.85;;;3.50;99.90;;;;;;4921705;29;20564;-71
2020/12/17 03:14:39;;;;;;;40.33;19.08;;;3.50;99.90;;;;;;4921227;29;20031;-71
2020/12/17 03:17:05;;;;;;;45.60;20.55;;;3.50;99.90;;;;;;4920487;29;20036;-71
2020/12/17 03:19:30;;;;;;;41.97;19.45;;;3.50;99.90;;;;;;4920596;29;20094;-71
2020/12/17 03:21:56;;;;;;;46.70;19.88;;;3.60;99.90;;;;;;4921194;29;20090;-71
2020/12/17 03:24:22;;;;;;;44.83;20.65;;;3.50;99.90;;;;;;4920899;29;20118;-71
2020/12/17 03:26:47;;;;;;;51.05;20.48;;;3.50;99.90;;;;;;4919111;29;20217;-71
2020/12/17 03:29:13;;;;;;;41.30;19.23;;;3.50;99.90;;;;;;4943680;28;20039;-71
2020/12/17 03:31:39;;;;;;;50.05;19.77;;;3.40;99.90;;;;;;4922399;29;20135;-71
2020/12/17 03:34:04;;;;;;;44.10;19.90;;;3.40;99.90;;;;;;4921838;29;20492;-71
2020/12/17 03:36:30;;;;;;;44.75;20.67;;;3.40;99.90;;;;;;4922380;29;20091;-72
2020/12/17 03:38:56;;;;;;;45.92;19.65;;;3.30;99.90;;;;;;4921260;29;20027;-71
2020/12/17 03:41:21;;;;;;;45.72;19.75;;;3.30;99.90;;;;;;4922407;29;20576;-71
2020/12/17 03:43:47;;;;;;;44.28;19.50;;;3.30;99.90;;;;;;4922618;29;20043;-71
2020/12/17 03:46:13;;;;;;;48.33;19.88;;;3.30;99.90;;;;;;4922025;29;20039;-71
2020/12/17 03:48:39;;;;;;;39.67;17.52;;;3.20;99.90;;;;;;4921468;29;20218;-71
2020/12/17 03:51:04;;;;;;;41.88;19.65;;;3.20;99.90;;;;;;4921097;29;20079;-71
2020/12/17 03:53:30;;;;;;;42.88;19.83;;;3.20;99.90;;;;;;4920706;29;20028;-71
2020/12/17 03:55:56;;;;;;;45.78;19.23;;;3.10;99.90;;;;;;4919478;29;20799;-71
2020/12/17 03:58:21;;;;;;;45.38;19.50;;;3.10;99.90;;;;;;4920148;29;20838;-71
2020/12/17 04:00:47;;;;;;;44.72;19.08;;;3.10;99.90;;;;;;4923848;29;20031;-71
2020/12/17 04:03:13;;;;;;;49.53;20.65;;;3.10;99.90;;;;;;4924176;29;20664;-71
2020/12/17 04:05:38;;;;;;;48.45;20.17;;;3.10;99.90;;;;;;4918303;29;20047;-71
2020/12/17 04:08:04;;;;;;;49.70;20.85;;;3.10;99.90;;;;;;4923150;29;20043;-71
2020/12/17 04:10:30;;;;;;;45.58;20.08;;;3.00;99.90;;;;;;4925170;29;20040;-71
2020/12/17 04:12:55;;;;;;;49.67;20.27;;;3.00;99.90;;;;;;4926088;29;20038;-71
2020/12/17 04:15:21;;;;;;;44.72;19.65;;;3.00;99.90;;;;;;4924925;29;20032;-71
2020/12/17 04:17:47;;;;;;;50.67;20.65;;;3.00;99.90;;;;;;4925380;29;20047;-72
2020/12/17 04:20:12;;;;;;;54.55;22.98;;;3.00;99.90;;;;;;4925677;29;20476;-71
2020/12/17 04:22:38;;;;;;;51.63;20.65;;;3.00;99.90;;;;;;4919251;29;20406;-71
2020/12/17 04:25:04;;;;;;;46.97;20.38;;;2.90;99.90;;;;;;4925450;29;20162;-71
2020/12/17 04:27:30;;;;;;;49.20;21.23;;;2.90;99.90;;;;;;4925978;29;20146;-71
2020/12/17 04:29:55;;;;;;;51.20;21.17;;;2.90;99.90;;;;;;4939308;28;20135;-71
2020/12/17 04:32:21;;;;;;;53.75;22.50;;;2.90;99.90;;;;;;4925356;29;20043;-71
2020/12/17 04:34:47;;;;;;;52.88;20.50;;;2.90;99.90;;;;;;4925199;29;20032;-71
2020/12/17 04:37:12;;;;;;;58.35;22.45;;;2.90;99.90;;;;;;4924281;29;20043;-71
2020/12/17 04:39:38;;;;;;;51.92;21.92;;;2.90;99.90;;;;;;4938959;29;20134;-71
2020/12/17 04:42:06;;;;;;;55.05;22.98;;;2.90;99.90;;;;;;4924924;29;20268;-71
2020/12/17 04:44:32;;;;;;;52.38;21.35;;;2.90;99.90;;;;;;4923250;29;20511;-71
2020/12/17 04:47:03;;;;;;;57.17;23.45;;;2.90;99.90;;;;;;4924779;29;20167;-71
2020/12/17 04:49:41;;;;;;;54.42;22.85;;;3.00;99.90;;;;;;4923485;29;20032;-70
2020/12/17 04:52:07;;;;;;;56.63;23.17;;;3.00;99.90;;;;;;4924147;29;20095;-71
2020/12/17 04:54:34;;;;;;;51.25;22.15;;;3.00;99.90;;;;;;4925094;29;20484;-70
2020/12/17 04:57:08;;;;;;;55.10;22.55;;;3.00;99.90;;;;;;4924536;29;20043;-73
2020/12/17 04:59:45;;;;;;;53.22;22.17;;;3.00;99.90;;;;;;4924131;29;20242;-69
2020/12/17 05:02:12;;;;;;;55.10;21.95;;;3.00;99.90;;;;;;4924526;29;20476;-70
2020/12/17 05:04:41;;;;;;;53.20;21.95;;;3.00;99.90;;;;;;4924762;29;20411;-70
2020/12/17 05:07:11;;;;;;;52.65;22.33;;;3.00;99.90;;;;;;4923593;29;20746;-70
2020/12/17 05:09:39;;;;;;;48.88;21.55;;;3.10;99.90;;;;;;4938359;28;20039;-71
2020/12/17 05:12:05;;;;;;;49.78;21.27;;;3.10;99.90;;;;;;4924420;29;20118;-70
2020/12/17 05:14:31;;;;;;;51.65;21.83;;;3.10;99.90;;;;;;4923966;29;20086;-71
2020/12/17 05:16:57;;;;;;;50.88;22.25;;;3.10;99.90;;;;;;4924200;29;20054;-70
2020/12/17 05:19:24;;;;;;;48.55;21.02;;;3.20;99.90;;;;;;4924050;29;20420;-70
2020/12/17 05:21:51;;;;;;;48.60;22.15;;;3.20;99.90;;;;;;4938131;28;20070;-70
2020/12/17 05:24:22;;;;;;;48.38;19.83;;;3.20;99.90;;;;;;4923630;29;20544;-70
2020/12/17 05:26:50;;;;;;;51.78;21.25;;;3.20;99.90;;;;;;4927235;29;20031;-70
2020/12/17 05:29:16;;;;;;;48.17;20.45;;;3.20;99.90;;;;;;4931336;28;20384;-69
2020/12/17 05:31:42;;;;;;;51.53;21.88;;;3.20;99.90;;;;;;4923804;29;20484;-69
2020/12/17 05:34:08;;;;;;;51.92;21.80;;;3.20;99.90;;;;;;4939026;29;20036;-70
2020/12/17 05:36:34;;;;;;;49.22;20.67;;;3.20;99.90;;;;;;4923725;29;20130;-70
2020/12/17 05:39:08;;;;;;;53.35;21.90;;;3.30;99.90;;;;;;4923899;29;20055;-70
2020/12/17 05:41:36;;;;;;;49.55;20.98;;;3.30;99.90;;;;;;4924029;29;20285;-69
2020/12/17 05:44:09;;;;;;;46.50;20.40;;;3.30;99.90;;;;;;4923877;29;20043;-69
2020/12/17 05:46:39;;;;;;;49.95;20.52;;;3.30;99.90;;;;;;4923344;29;20048;-69
2020/12/17 05:49:15;;;;;;;48.15;21.17;;;3.20;99.90;;;;;;4937809;29;20054;-69
2020/12/17 05:51:41;;;;;;;44.55;20.15;;;3.20;99.90;;;;;;4937493;29;20031;-68
2020/12/17 05:54:23;;;;;;;46.83;20.17;;;3.20;99.90;;;;;;4923914;29;20047;-69
2020/12/17 05:57:02;;;;;;;47.70;19.80;;;3.20;99.90;;;;;;4918089;29;20042;-69
2020/12/17 05:59:28;;;;;;;46.28;19.60;;;3.20;99.90;;;;;;4922030;29;20028;-70
2020/12/17 06:01:54;;;;;;;42.90;19.55;;;3.20;99.90;;;;;;4938258;28;20047;-70
2020/12/17 06:04:19;;;;;;;64.45;26.83;;;3.20;99.90;;;;;;4922097;29;20039;-70
2020/12/17 06:06:47;;;;;;;47.80;21.17;;;3.10;99.90;;;;;;4922556;29;20038;-70
2020/12/17 06:09:27;;;;;;;47.45;20.67;;;3.10;99.90;;;;;;4923263;29;20038;-69
2020/12/17 06:11:53;;;;;;;45.97;20.02;;;3.10;99.90;;;;;;4921690;29;20058;-69
2020/12/17 06:14:21;;;;;;;45.72;19.75;;;3.10;99.90;;;;;;4936617;28;20815;-69
2020/12/17 06:16:52;;;;;;;48.80;20.73;;;3.10;99.90;;;;;;4922324;29;20031;-69
2020/12/17 06:19:23;;;;;;;44.50;19.23;;;3.10;99.90;;;;;;4923005;29;20046;-69
2020/12/17 06:21:50;;;;;;;50.70;20.42;;;3.10;99.90;;;;;;4921668;29;20495;-69
2020/12/17 06:24:20;;;;;;;46.65;19.42;;;3.10;99.90;;;;;;4923193;29;20824;-69
2020/12/17 06:26:55;;;;;;;45.78;19.73;;;3.10;99.90;;;;;;4922626;29;20036;-69
2020/12/17 06:29:22;;;;;;;44.17;20.48;;;3.10;99.90;;;;;;4920902;29;20054;-69
2020/12/17 06:31:56;;;;;;;48.47;20.45;;;3.10;99.90;;;;;;4922117;29;20399;-69
2020/12/17 06:34:22;;;;;;;41.03;18.27;;;3.10;99.90;;;;;;4937702;28;20031;-68
2020/12/17 06:36:57;;;;;;;44.92;19.23;;;3.20;99.90;;;;;;4922231;29;20087;-69
2020/12/17 06:39:24;;;;;;;40.00;18.33;;;3.20;99.90;;;;;;4922557;29;20035;-71
2020/12/17 06:41:51;;;;;;;42.65;18.50;;;3.30;99.90;;;;;;4922914;29;20043;-70
2020/12/17 06:44:27;;;;;;;39.58;19.20;;;3.30;99.90;;;;;;4922244;29;20039;-70
2020/12/17 06:46:58;;;;;;;43.75;20.10;;;3.40;99.90;;;;;;4922441;29;20047;-69
2020/12/17 06:49:29;;;;;;;44.03;19.40;;;3.40;99.90;;;;;;4921383;29;20485;-69
2020/12/17 06:52:07;;;;;;;38.55;18.15;;;3.40;99.90;;;;;;4921755;29;20044;-67
2020/12/17 06:54:34;;;;;;;37.85;17.33;;;3.50;99.90;;;;;;4922075;29;20028;-70
2020/12/17 06:57:11;;;;;;;41.42;19.52;;;3.50;99.90;;;;;;4922054;29;20115;-69
2020/12/17 06:59:41;;;;;;;40.05;18.23;;;3.60;99.90;;;;;;4921381;29;20051;-69
2020/12/17 07:02:07;;;;;;;41.80;18.48;;;3.60;99.90;;;;;;4937032;28;20464;-69
2020/12/17 07:04:48;;;;;;;41.78;19.40;;;3.70;99.90;;;;;;4922497;29;20036;-70
2020/12/17 07:07:17;;;;;;;64.32;27.67;;;3.70;99.90;;;;;;4922361;29;20046;-69
2020/12/17 07:09:45;;;;;;;56.72;23.33;;;3.70;99.90;;;;;;4936842;29;20043;-69
2020/12/17 07:12:12;;;;;;;43.70;19.25;;;3.70;99.90;;;;;;4936525;28;20758;-69
2020/12/17 07:14:39;;;;;;;48.50;21.35;;;3.60;99.90;;;;;;4922298;29;20126;-70
2020/12/17 07:17:07;;;;;;;48.40;21.67;;;3.70;99.90;;;;;;4921657;29;20042;-70
2020/12/17 07:19:44;;;;;;;37.88;17.75;;;3.70;99.90;;;;;;4920861;29;20036;-69
2020/12/17 07:22:15;;;;;;;40.45;17.80;;;3.70;99.90;;;;;;4922257;29;20891;-69
2020/12/17 07:24:44;;;;;;;40.95;19.48;;;3.80;99.90;;;;;;4914310;29;20040;-69
2020/12/17 07:27:25;;;;;;;34.75;16.90;;;3.90;99.90;;;;;;4921177;29;20499;-69
2020/12/17 07:30:03;;;;;;;37.63;18.05;;;3.90;99.90;;;;;;4936516;28;20456;-69
2020/12/17 07:32:36;;;;;;;39.22;17.20;;;3.90;99.90;;;;;;4921229;29;20067;-69
2020/12/17 07:35:16;;;;;;;38.60;17.90;;;3.90;99.90;;;;;;4932226;29;20027;-69
2020/12/17 07:37:43;;;;;;;36.75;16.92;;;3.90;99.90;;;;;;4934814;29;20035;-69
2020/12/17 07:40:17;;;;;;;38.65;17.58;;;4.00;99.90;;;;;;4925687;29;20122;-70
2020/12/17 07:42:58;;;;;;;41.13;20.33;;;4.10;99.90;;;;;;4919763;29;20036;-69
2020/12/17 07:45:36;;;;;;;36.78;17.75;;;4.20;99.90;;;;;;4925069;29;20634;-69
2020/12/17 07:48:02;;;;;;;32.30;15.75;;;4.20;99.90;;;;;;4925781;29;20505;-69
2020/12/17 07:50:39;;;;;;;32.22;16.08;;;4.30;99.90;;;;;;4923887;29;20031;-69
2020/12/17 07:53:23;;;;;;;35.47;16.48;;;4.30;99.90;;;;;;4940727;28;20526;-70
2020/12/17 07:55:50;;;;;;;32.28;15.23;;;4.40;99.90;;;;;;4921140;29;20059;-69
2020/12/17 07:58:16;;;;;;;32.95;16.05;;;4.50;99.90;;;;;;4925775;29;20063;-70
2020/12/17 08:00:42;;;;;;;35.55;16.05;;;4.50;99.90;;;;;;4925179;29;20770;-70
2020/12/17 08:03:08;;;;;;;33.42;15.65;;;4.40;99.90;;;;;;4925376;29;20031;-70
2020/12/17 08:05:34;;;;;;;32.83;15.30;;;4.50;99.90;;;;;;4923248;29;20060;-69
2020/12/17 08:08:00;;;;;;;31.63;15.50;;;4.50;99.90;;;;;;4925373;29;20639;-70
2020/12/17 08:10:26;;;;;;;32.42;14.80;;;4.50;99.90;;;;;;4925750;29;20028;-71
2020/12/17 08:12:52;;;;;;;33.30;15.32;;;4.60;99.90;;;;;;4925489;29;20028;-71
2020/12/17 08:15:20;;;;;;;31.73;14.30;;;4.50;99.90;;;;;;4924823;29;20039;-70
2020/12/17 08:17:48;;;;;;;31.70;14.75;;;4.60;99.90;;;;;;4925362;29;20042;-71
2020/12/17 08:20:14;;;;;;;28.63;14.13;;;4.60;99.90;;;;;;4924610;29;20040;-71
2020/12/17 08:22:42;;;;;;;31.10;15.05;;;4.60;99.90;;;;;;4926130;29;20039;-71
2020/12/17 08:25:08;;;;;;;29.50;13.77;;;4.70;99.90;;;;;;4923278;29;20138;-70
2020/12/17 08:27:34;;;;;;;29.10;13.70;;;4.80;99.90;;;;;;4924872;29;20126;-70
2020/12/17 08:30:00;;;;;;;28.40;14.20;;;4.80;99.90;;;;;;4939092;28;20578;-71
2020/12/17 08:32:27;;;;;;;29.17;14.35;;;4.80;99.90;;;;;;4923498;29;20459;-71
2020/12/17 08:34:54;;;;;;;26.35;13.23;;;4.80;99.90;;;;;;4923788;29;20027;-70
2020/12/17 08:37:21;;;;;;;29.15;13.57;;;4.80;99.90;;;;;;4924931;29;20042;-70
2020/12/17 08:39:58;;;;;;;31.90;14.20;;;4.80;99.90;;;;;;4940360;29;20035;-71
2020/12/17 08:42:26;;;;;;;25.40;12.75;;;4.90;99.90;;;;;;4925965;29;20518;-69
2020/12/17 08:44:54;;;;;;;27.92;13.35;;;4.90;99.90;;;;;;4925387;29;20064;-69
2020/12/17 08:47:21;;;;;;;26.40;12.68;;;5.00;99.90;;;;;;4925864;29;20086;-70
2020/12/17 08:49:47;;;;;;;24.73;12.30;;;5.00;99.90;;;;;;4926033;29;20032;-68
2020/12/17 08:52:26;;;;;;;23.30;11.73;;;5.10;99.90;;;;;;4924573;29;20032;-70
2020/12/17 08:55:00;;;;;;;23.02;11.07;;;5.00;99.90;;;;;;4921577;29;20039;-69
2020/12/17 08:57:26;;;;;;;22.20;11.55;;;5.10;99.90;;;;;;4925463;29;20031;-69
2020/12/17 08:59:52;;;;;;;39.42;17.90;;;5.20;99.90;;;;;;4925666;29;20035;-70
2020/12/17 09:02:29;;;;;;;22.95;12.07;;;5.20;99.90;;;;;;4925453;29;20134;-69
2020/12/17 09:04:59;;;;;;;24.02;12.50;;;5.30;99.90;;;;;;4939632;28;20040;-68
2020/12/17 09:07:31;;;;;;;24.42;12.35;;;5.30;99.90;;;;;;4923838;29;20083;-70
2020/12/17 09:10:09;;;;;;;21.02;11.05;;;5.40;99.90;;;;;;4940462;28;20138;-69
2020/12/17 09:12:35;;;;;;;22.13;11.57;;;5.40;99.90;;;;;;4938846;29;20036;-70
2020/12/17 09:15:16;;;;;;;23.98;11.43;;;5.50;99.90;;;;;;4923122;29;20822;-70
2020/12/17 09:17:42;;;;;;;23.00;11.40;;;5.50;99.90;;;;;;4933481;29;20032;-70
2020/12/17 09:20:19;;;;;;;20.42;10.80;;;5.60;99.90;;;;;;4924325;29;20046;-69
2020/12/17 09:22:46;;;;;;;24.13;11.68;;;5.60;99.90;;;;;;4919683;29;20141;-70
2020/12/17 09:25:13;;;;;;;21.60;11.32;;;5.70;99.90;;;;;;4937140;28;20040;-70
2020/12/17 09:27:40;;;;;;;22.13;11.88;;;5.80;99.90;;;;;;4943418;28;20039;-71
2020/12/17 09:30:17;;;;;;;21.58;11.02;;;5.90;99.90;;;;;;4925705;28;20039;-70
2020/12/17 09:33:00;;;;;;;20.35;10.23;;;5.90;99.90;;;;;;4939460;29;20477;-70
2020/12/17 09:35:36;;;;;;;20.08;9.55;;;5.90;99.90;;;;;;4938436;28;20043;-71
2020/12/17 09:38:04;;;;;;;19.58;10.25;;;5.90;99.90;;;;;;4939335;29;20039;-71
2020/12/17 09:40:31;;;;;;;19.15;10.10;;;5.90;99.90;;;;;;4922880;29;20028;-71
2020/12/17 09:43:13;;;;;;;18.80;10.50;;;5.90;99.90;;;;;;4939319;28;20043;-70
2020/12/17 09:45:52;;;;;;;17.27;9.77;;;5.90;99.90;;;;;;4931785;29;20130;-74
2020/12/17 09:48:24;;;;;;;22.58;9.90;;;6.00;99.90;;;;;;4924170;29;20028;-71
2020/12/17 09:50:51;;;;;;;17.70;9.68;;;6.00;99.90;;;;;;4923842;29;20071;-70
2020/12/17 09:53:19;;;;;;;21.05;11.32;;;6.10;99.90;;;;;;4924345;29;20036;-72
2020/12/17 09:55:44;;;;;;;19.10;9.30;;;6.20;99.90;;;;;;4922259;29;20107;-72
2020/12/17 09:58:10;;;;;;;21.23;11.20;;;6.30;99.90;;;;;;4923425;29;20475;-71
2020/12/17 10:00:36;;;;;;;16.77;8.93;;;6.40;99.90;;;;;;4923054;29;20039;-72
2020/12/17 10:03:05;;;;;;;18.52;9.38;;;6.40;99.90;;;;;;4922987;29;20031;-72
2020/12/17 10:05:30;;;;;;;17.38;8.70;;;6.60;99.90;;;;;;4923018;29;20087;-71
2020/12/17 10:07:56;;;;;;;17.40;8.73;;;6.70;99.90;;;;;;4924271;29;21035;-71
2020/12/17 10:10:22;;;;;;;16.75;8.82;;;6.70;99.90;;;;;;4923264;29;21086;-71
2020/12/17 10:12:48;;;;;;;15.75;8.13;;;6.70;99.90;;;;;;4924082;29;20035;-71
2020/12/17 10:15:13;;;;;;;16.65;7.85;;;6.80;99.90;;;;;;4922254;29;20183;-71
2020/12/17 10:17:39;;;;;;;17.05;8.60;;;6.90;99.90;;;;;;4922601;29;20035;-71
2020/12/17 10:20:06;;;;;;;17.45;9.30;;;7.10;99.90;;;;;;4923434;29;20212;-71
2020/12/17 10:22:32;;;;;;;15.00;8.05;;;7.20;99.90;;;;;;4924392;29;20551;-70
2020/12/17 10:24:58;;;;;;;14.82;8.10;;;7.40;99.90;;;;;;4922966;29;20044;-72
2020/12/17 10:27:24;;;;;;;15.57;8.13;;;7.30;99.90;;;;;;4936905;29;20040;-71
2020/12/17 10:29:49;;;;;;;15.32;7.95;;;7.20;99.90;;;;;;4922069;29;20559;-71
2020/12/17 10:32:18;;;;;;;12.80;7.38;;;7.40;99.90;;;;;;4921870;29;20785;-71
2020/12/17 10:34:44;;;;;;;14.27;8.18;;;7.50;99.90;;;;;;4922310;29;20506;-71
2020/12/17 10:37:10;;;;;;;15.32;7.97;;;7.70;99.90;;;;;;4922482;29;20043;-71
2020/12/17 10:39:35;;;;;;;15.85;8.25;;;7.60;99.90;;;;;;4922582;29;20480;-71
2020/12/17 10:42:02;;;;;;;15.00;8.15;;;7.70;99.90;;;;;;4923531;29;20036;-71
2020/12/17 10:44:28;;;;;;;14.98;8.10;;;7.70;99.90;;;;;;4923750;29;20125;-71
2020/12/17 10:46:54;;;;;;;14.32;7.70;;;7.70;99.90;;;;;;4922470;29;20798;-71
2020/12/17 10:49:19;;;;;;;15.15;8.15;;;7.60;99.90;;;;;;4938065;28;20040;-71
2020/12/17 10:51:48;;;;;;;13.77;7.70;;;7.50;99.90;;;;;;4923956;29;20043;-71
2020/12/17 10:54:13;;;;;;;16.00;8.25;;;7.40;99.90;;;;;;4923211;29;20027;-72
2020/12/17 10:56:44;;;;;;;16.70;9.18;;;7.40;99.90;;;;;;4923292;29;20090;-75
2020/12/17 10:59:09;;;;;;;13.98;7.93;;;7.40;99.90;;;;;;4922030;29;20036;-71
2020/12/17 11:01:35;;;;;;;15.65;8.20;;;7.60;99.90;;;;;;4937654;29;20145;-69
2020/12/17 11:04:01;;;;;;;48.45;21.38;;;7.60;99.90;;;;;;4922434;29;20499;-71
2020/12/17 11:06:26;;;;;;;13.70;7.55;;;7.50;99.90;;;;;;4937616;28;20519;-71
2020/12/17 11:08:52;;;;;;;17.88;7.70;;;7.60;99.90;;;;;;4922864;29;20103;-70
2020/12/17 11:11:18;;;;;;;16.02;8.35;;;7.60;99.90;;;;;;4922242;29;20452;-70
2020/12/17 11:13:44;;;;;;;15.60;8.05;;;7.70;99.90;;;;;;4937805;28;20131;-71
2020/12/17 11:16:10;;;;;;;17.67;8.13;;;7.60;99.90;;;;;;4922467;29;20036;-71
2020/12/17 11:18:36;;;;;;;15.35;8.18;;;7.70;99.90;;;;;;4936634;28;20051;-71
2020/12/17 11:21:01;;;;;;;15.02;7.65;;;8.00;99.90;;;;;;4937335;29;20123;-70
2020/12/17 11:23:27;;;;;;;14.90;8.20;;;8.30;99.90;;;;;;4922600;29;20042;-70
2020/12/17 11:25:53;;;;;;;35.13;15.43;;;8.40;99.90;;;;;;4924368;29;20736;-69
2020/12/17 11:28:18;;;;;;;14.70;7.72;;;8.70;99.90;;;;;;4921008;29;20035;-70
2020/12/17 11:30:44;;;;;;;16.27;7.53;;;8.80;99.90;;;;;;4922821;29;20046;-72
2020/12/17 11:33:10;;;;;;;14.30;7.45;;;8.50;99.90;;;;;;4937176;28;20039;-71
2020/12/17 11:35:35;;;;;;;12.02;7.63;;;8.30;99.90;;;;;;4922857;29;20044;-71
2020/12/17 11:38:01;;;;;;;14.82;8.25;;;8.20;99.90;;;;;;4923218;29;20137;-71
2020/12/17 11:40:27;;;;;;;20.50;7.30;;;7.90;99.90;;;;;;4936388;29;20031;-71
2020/12/17 11:42:56;;;;;;;12.93;7.20;;;7.90;99.90;;;;;;4922448;29;20841;-72
2020/12/17 11:45:23;;;;;;;14.07;7.47;;;8.00;99.90;;;;;;4921744;29;20047;-70
2020/12/17 11:47:49;;;;;;;13.48;7.28;;;8.10;99.90;;;;;;4922143;29;20106;-70
2020/12/17 11:50:15;;;;;;;13.63;7.18;;;8.20;99.90;;;;;;4921890;29;20043;-71
2020/12/17 11:52:40;;;;;;;16.08;8.07;;;8.30;99.90;;;;;;4922527;29;20460;-69
2020/12/17 11:55:08;;;;;;;15.65;7.35;;;8.30;99.90;;;;;;4922105;29;20078;-72
2020/12/17 11:57:35;;;;;;;13.88;6.88;;;8.20;99.90;;;;;;4922659;29;20452;-71
2020/12/17 12:00:04;;;;;;;14.23;7.63;;;8.30;99.90;;;;;;4922247;29;20036;-71
2020/12/17 12:02:30;;;;;;;15.25;7.93;;;8.20;99.90;;;;;;4921254;29;20040;-71
2020/12/17 12:04:55;;;;;;;17.35;7.90;;;8.20;99.90;;;;;;4921927;29;20797;-74
2020/12/17 12:07:25;;;;;;;16.83;8.15;;;8.20;99.90;;;;;;4936664;29;20118;-69
2020/12/17 12:09:52;;;;;;;16.60;8.15;;;8.20;99.90;;;;;;4921816;29;20047;-70
2020/12/17 12:12:18;;;;;;;12.73;6.80;;;8.10;99.90;;;;;;4922473;29;20035;-73
2020/12/17 12:14:44;;;;;;;14.77;7.50;;;8.30;99.90;;;;;;4922573;29;20040;-70
2020/12/17 12:17:09;;;;;;;21.67;7.25;;;8.60;99.90;;;;;;4936384;29;20039;-71
2020/12/17 12:19:35;;;;;;;19.83;7.50;;;8.60;99.90;;;;;;4923908;29;20059;-71
2020/12/17 12:22:00;;;;;;;17.60;7.80;;;8.80;99.90;;;;;;4926514;29;20135;-71
2020/12/17 12:24:26;;;;;;;15.45;7.45;;;8.90;99.90;;;;;;4925487;29;20051;-71
2020/12/17 12:26:52;;;;;;;11.77;6.93;;;8.90;99.90;;;;;;4940128;28;20464;-71
2020/12/17 12:29:17;;;;;;;13.00;6.70;;;9.10;99.90;;;;;;4923721;29;20043;-70
2020/12/17 12:31:43;;;;;;;11.82;6.65;;;9.20;99.90;;;;;;4926713;29;20118;-75
2020/12/17 12:34:09;;;;;;;16.15;7.93;;;9.10;99.90;;;;;;4927177;29;20036;-75
2020/12/17 12:36:35;;;;;;;13.82;7.90;;;9.10;99.90;;;;;;4926490;29;20050;-75
2020/12/17 12:39:00;;;;;;;14.38;7.82;;;9.00;99.90;;;;;;4925169;29;20032;-75
2020/12/17 12:41:26;;;;;;;13.77;7.15;;;9.00;99.90;;;;;;4924569;29;20071;-75